Time;durP1;ratioP1;P1;durP2;ratioP2;P2;SDS_P1;SDS_P2;PMS_P1;PMS_P2;Temp;Humidity;BMP_temperature;BMP_pressure;BME280_temperature;BME280_humidity;BME280_pressure;Samples;Min_cycle;Max_cycle;Signal;HPM_P1;HPM_P2
2023/12/18 00:01:36;;;;;;;8.77;4.13;;;8.00;99.90;;;;;;5060636;28;20056;-78
2023/12/18 00:04:07;;;;;;;10.13;3.38;;;8.00;99.90;;;;;;5064763;28;20032;-80
2023/12/18 00:06:33;;;;;;;12.68;3.85;;;8.00;99.90;;;;;;5061110;28;20044;-78
2023/12/18 00:08:59;;;;;;;7.32;2.83;;;8.00;99.90;;;;;;5070059;28;20132;-79
2023/12/18 00:11:24;;;;;;;7.97;3.13;;;8.00;99.90;;;;;;5047719;28;20478;-78
2023/12/18 00:13:52;;;;;;;4.93;2.97;;;8.00;99.90;;;;;;5036892;28;20043;-78
2023/12/18 00:16:17;;;;;;;7.68;3.17;;;8.00;99.90;;;;;;5065183;28;20039;-80
2023/12/18 00:18:43;;;;;;;7.13;3.47;;;8.00;99.90;;;;;;5067165;28;20048;-79
2023/12/18 00:21:09;;;;;;;13.70;3.35;;;8.00;99.90;;;;;;5063381;28;20147;-78
2023/12/18 00:23:35;;;;;;;7.45;3.25;;;8.00;99.90;;;;;;5065750;28;20044;-80
2023/12/18 00:26:00;;;;;;;7.88;3.40;;;8.00;99.90;;;;;;5068615;28;20036;-80
2023/12/18 00:28:26;;;;;;;10.05;2.67;;;8.00;99.90;;;;;;5060920;28;20133;-79
2023/12/18 00:30:52;;;;;;;4.20;3.17;;;8.00;99.90;;;;;;5047373;28;20147;-79
2023/12/18 00:33:18;;;;;;;9.50;2.97;;;8.00;99.90;;;;;;5060265;28;20539;-78
2023/12/18 00:35:43;;;;;;;8.70;4.18;;;8.00;99.90;;;;;;5047652;28;20041;-78
2023/12/18 00:38:09;;;;;;;6.47;2.60;;;8.10;99.90;;;;;;5035501;28;20048;-79
2023/12/18 00:40:35;;;;;;;7.65;2.63;;;8.10;99.90;;;;;;5063732;28;20048;-79
2023/12/18 00:43:01;;;;;;;10.88;3.28;;;8.10;99.90;;;;;;5056071;28;20102;-79
2023/12/18 00:45:26;;;;;;;7.38;2.85;;;8.10;99.90;;;;;;5044942;28;20045;-79
2023/12/18 00:47:52;;;;;;;7.05;2.67;;;8.10;99.90;;;;;;5059914;28;20047;-79
2023/12/18 00:50:18;;;;;;;12.45;3.92;;;8.10;99.90;;;;;;5046301;28;20028;-77
2023/12/18 00:52:44;;;;;;;4.15;2.78;;;8.10;99.90;;;;;;5049781;28;20040;-73
2023/12/18 00:55:10;;;;;;;9.07;3.97;;;8.20;99.90;;;;;;5051419;28;20516;-75
2023/12/18 00:57:36;;;;;;;10.48;2.92;;;8.20;99.90;;;;;;5059267;28;20087;-76
2023/12/18 01:00:04;;;;;;;8.93;2.65;;;8.20;99.90;;;;;;5051505;28;20051;-74
2023/12/18 01:02:29;;;;;;;7.80;2.65;;;8.20;99.90;;;;;;5053071;28;20567;-74
2023/12/18 01:04:55;;;;;;;14.55;3.22;;;8.20;99.90;;;;;;5030374;28;20041;-75
2023/12/18 01:07:22;;;;;;;13.80;2.58;;;8.20;99.90;;;;;;5042545;28;20511;-74
2023/12/18 01:09:48;;;;;;;5.50;2.78;;;8.20;99.90;;;;;;5054657;28;20080;-75
2023/12/18 01:12:13;;;;;;;6.05;3.35;;;8.20;99.90;;;;;;5052169;28;20064;-75
2023/12/18 01:14:39;;;;;;;12.00;2.88;;;8.20;99.90;;;;;;5042491;28;20060;-76
2023/12/18 01:17:05;;;;;;;5.97;2.78;;;8.20;99.90;;;;;;5054209;28;20041;-75
2023/12/18 01:19:30;;;;;;;9.75;2.70;;;8.20;99.90;;;;;;5051721;28;20124;-75
2023/12/18 01:21:56;;;;;;;5.43;2.95;;;8.20;99.90;;;;;;5034429;28;20032;-74
2023/12/18 01:24:22;;;;;;;8.90;2.80;;;8.30;99.90;;;;;;5054860;28;20048;-74
2023/12/18 01:26:48;;;;;;;7.28;2.67;;;8.20;99.90;;;;;;5062924;28;20110;-75
2023/12/18 01:29:13;;;;;;;15.55;3.47;;;8.30;99.90;;;;;;5042382;28;20431;-75
2023/12/18 01:31:39;;;;;;;9.07;2.83;;;8.30;99.90;;;;;;5054488;28;20428;-74
2023/12/18 01:34:08;;;;;;;7.47;2.57;;;8.20;99.90;;;;;;5071349;28;20542;-75
2023/12/18 01:36:35;;;;;;;7.07;3.50;;;8.30;99.90;;;;;;5050215;28;20102;-73
2023/12/18 01:39:01;;;;;;;8.95;2.22;;;8.30;99.90;;;;;;5049395;28;20029;-74
2023/12/18 01:41:27;;;;;;;8.77;3.20;;;8.20;99.90;;;;;;5034895;28;20148;-75
2023/12/18 01:43:53;;;;;;;4.00;2.80;;;8.30;99.90;;;;;;5014354;28;20433;-73
2023/12/18 01:46:24;;;;;;;7.40;2.10;;;8.30;99.90;;;;;;5014690;28;20081;-74
2023/12/18 01:48:52;;;;;;;12.07;2.75;;;8.30;99.90;;;;;;5014435;28;20043;-75
2023/12/18 01:51:22;;;;;;;8.00;2.00;;;8.30;99.90;;;;;;5014611;28;20041;-74
2023/12/18 01:53:52;;;;;;;5.35;2.78;;;8.30;99.90;;;;;;5002115;28;20666;-74
2023/12/18 01:56:22;;;;;;;5.88;2.80;;;8.30;99.90;;;;;;5021613;28;20044;-75
2023/12/18 01:58:48;;;;;;;10.18;2.75;;;8.30;99.90;;;;;;5010460;28;20073;-75
2023/12/18 02:01:14;;;;;;;5.00;2.38;;;8.30;99.90;;;;;;5030346;28;20045;-74
2023/12/18 02:03:41;;;;;;;9.00;3.30;;;8.30;99.90;;;;;;5022367;28;20044;-75
2023/12/18 02:06:07;;;;;;;9.93;3.55;;;8.30;99.90;;;;;;5031202;28;20428;-74
2023/12/18 02:08:34;;;;;;;6.40;2.10;;;8.30;99.90;;;;;;5017734;28;20448;-76
2023/12/18 02:11:00;;;;;;;3.33;1.83;;;8.30;99.90;;;;;;5023436;28;20052;-75
2023/12/18 02:13:26;;;;;;;11.40;2.53;;;8.30;99.90;;;;;;5024904;28;20045;-74
2023/12/18 02:15:52;;;;;;;10.85;2.42;;;8.30;99.90;;;;;;5030773;28;20034;-75
2023/12/18 02:18:18;;;;;;;13.45;3.10;;;8.30;99.90;;;;;;5014378;28;20417;-75
2023/12/18 02:20:44;;;;;;;6.30;2.55;;;8.30;99.90;;;;;;5030538;28;20065;-75
2023/12/18 02:23:13;;;;;;;7.22;2.30;;;8.30;99.90;;;;;;5034328;28;20041;-74
2023/12/18 02:25:42;;;;;;;14.85;2.40;;;8.30;99.90;;;;;;5027232;28;20052;-75
2023/12/18 02:28:10;;;;;;;5.07;2.67;;;8.30;99.90;;;;;;5013600;28;20365;-76
2023/12/18 02:30:36;;;;;;;5.32;2.40;;;8.30;99.90;;;;;;5026454;28;20077;-75
2023/12/18 02:33:02;;;;;;;8.65;2.50;;;8.30;99.90;;;;;;5031007;28;20042;-76
2023/12/18 02:35:28;;;;;;;9.07;2.53;;;8.30;99.90;;;;;;5034100;28;20049;-74
2023/12/18 02:37:54;;;;;;;7.60;2.33;;;8.30;99.90;;;;;;5022710;28;20041;-75
2023/12/18 02:40:22;;;;;;;5.53;2.20;;;8.30;99.90;;;;;;5025684;28;20498;-73
2023/12/18 02:42:48;;;;;;;8.13;2.97;;;8.30;99.90;;;;;;5013809;28;20041;-75
2023/12/18 02:45:13;;;;;;;5.82;2.65;;;8.30;99.90;;;;;;5029981;28;20041;-74
2023/12/18 02:47:39;;;;;;;7.85;2.47;;;8.40;99.90;;;;;;5013895;28;20040;-76
2023/12/18 02:50:06;;;;;;;8.80;2.40;;;8.40;99.90;;;;;;5022913;28;20064;-74
2023/12/18 02:52:32;;;;;;;5.93;2.85;;;8.40;99.90;;;;;;5029695;28;20132;-74
2023/12/18 02:54:59;;;;;;;8.38;2.30;;;8.40;99.90;;;;;;5034101;28;20120;-75
2023/12/18 02:57:24;;;;;;;9.70;2.88;;;8.40;99.90;;;;;;5013455;28;20047;-74
2023/12/18 02:59:50;;;;;;;21.23;3.28;;;8.30;99.90;;;;;;5009345;28;20124;-75
2023/12/18 03:02:16;;;;;;;3.78;2.15;;;8.30;99.90;;;;;;5030189;28;20728;-71
2023/12/18 03:04:42;;;;;;;7.07;3.25;;;8.40;99.90;;;;;;5013032;28;20425;-75
2023/12/18 03:07:11;;;;;;;4.47;2.22;;;8.40;99.90;;;;;;5021677;28;20033;-75
2023/12/18 03:09:37;;;;;;;6.28;2.72;;;8.40;99.90;;;;;;5010055;28;20089;-75
2023/12/18 03:12:04;;;;;;;8.02;2.83;;;8.40;99.90;;;;;;5010417;28;20126;-74
2023/12/18 03:14:29;;;;;;;8.00;2.80;;;8.40;99.90;;;;;;5024845;28;20045;-74
2023/12/18 03:16:55;;;;;;;4.85;2.78;;;8.40;99.90;;;;;;5029131;28;20672;-72
2023/12/18 03:19:21;;;;;;;8.95;3.83;;;8.40;99.90;;;;;;5025528;28;20043;-75
2023/12/18 03:21:47;;;;;;;11.10;3.60;;;8.40;99.90;;;;;;5027829;28;20048;-75
2023/12/18 03:24:13;;;;;;;5.70;3.25;;;8.40;99.90;;;;;;5026451;28;20042;-75
2023/12/18 03:26:38;;;;;;;10.00;2.80;;;8.40;99.90;;;;;;5025214;28;20037;-74
2023/12/18 03:29:05;;;;;;;8.52;3.00;;;8.40;99.90;;;;;;5013215;28;20112;-73
2023/12/18 03:31:30;;;;;;;6.88;2.50;;;8.40;99.90;;;;;;5029627;28;20045;-75
2023/12/18 03:33:56;;;;;;;5.80;2.85;;;8.30;99.90;;;;;;5026751;28;20052;-75
2023/12/18 03:36:22;;;;;;;4.93;3.10;;;8.30;99.90;;;;;;5011536;28;20436;-73
2023/12/18 03:38:48;;;;;;;8.10;3.55;;;8.40;99.90;;;;;;5025071;28;20128;-75
2023/12/18 03:41:14;;;;;;;8.70;3.63;;;8.40;99.90;;;;;;5031744;28;20057;-76
2023/12/18 03:43:40;;;;;;;7.53;2.80;;;8.30;99.90;;;;;;5029279;28;20116;-74
2023/12/18 03:46:09;;;;;;;8.00;3.42;;;8.30;99.90;;;;;;5012823;28;20065;-75
2023/12/18 03:48:35;;;;;;;8.90;3.33;;;8.40;99.90;;;;;;5024544;28;20086;-74
2023/12/18 03:51:00;;;;;;;7.50;3.28;;;8.40;99.90;;;;;;5029267;28;20033;-73
2023/12/18 03:53:26;;;;;;;11.13;3.40;;;8.30;99.90;;;;;;5025296;28;20071;-74
2023/12/18 03:55:52;;;;;;;5.30;2.35;;;8.30;99.90;;;;;;5012489;28;20060;-74
2023/12/18 03:58:18;;;;;;;5.07;2.65;;;8.40;99.90;;;;;;5020559;28;20124;-75
2023/12/18 04:00:44;;;;;;;7.95;2.47;;;8.40;99.90;;;;;;5009721;28;20100;-75
2023/12/18 04:03:10;;;;;;;9.15;3.50;;;8.40;99.90;;;;;;5021325;28;20453;-74
2023/12/18 04:05:35;;;;;;;7.20;3.28;;;8.40;99.90;;;;;;5028255;28;20159;-74
2023/12/18 04:08:01;;;;;;;9.90;3.83;;;8.40;99.90;;;;;;5016863;28;20176;-74
2023/12/18 04:10:27;;;;;;;4.13;2.85;;;8.40;99.90;;;;;;5024474;28;20041;-74
2023/12/18 04:12:54;;;;;;;7.47;3.70;;;8.40;99.90;;;;;;5028982;28;20033;-75
2023/12/18 04:15:19;;;;;;;7.25;3.05;;;8.40;99.90;;;;;;5012928;28;20339;-74
2023/12/18 04:17:45;;;;;;;10.88;3.17;;;8.40;99.90;;;;;;5021533;28;20045;-74
2023/12/18 04:20:11;;;;;;;11.30;3.88;;;8.40;99.90;;;;;;5024887;28;20389;-73
2023/12/18 04:22:37;;;;;;;6.57;2.55;;;8.40;99.90;;;;;;5028995;28;20045;-75
2023/12/18 04:25:03;;;;;;;7.57;4.18;;;8.40;99.90;;;;;;5037389;28;20076;-74
2023/12/18 04:27:29;;;;;;;9.20;3.13;;;8.50;99.90;;;;;;5029145;28;20117;-74
2023/12/18 04:29:55;;;;;;;10.07;3.00;;;8.50;99.90;;;;;;5012862;28;20169;-80
2023/12/18 04:32:20;;;;;;;6.72;2.78;;;8.50;99.90;;;;;;5034811;28;20041;-79
2023/12/18 04:34:46;;;;;;;9.25;3.42;;;8.50;99.90;;;;;;5038074;28;20628;-79
2023/12/18 04:37:12;;;;;;;6.45;2.88;;;8.50;99.90;;;;;;5031054;28;20045;-80
2023/12/18 04:39:38;;;;;;;7.57;2.33;;;8.50;99.90;;;;;;5037051;28;20053;-80
2023/12/18 04:42:04;;;;;;;6.05;2.60;;;8.50;99.90;;;;;;5042116;28;20659;-80
2023/12/18 04:44:30;;;;;;;8.60;3.47;;;8.50;99.90;;;;;;5049812;28;20040;-79
2023/12/18 04:46:56;;;;;;;5.32;2.67;;;8.50;99.90;;;;;;5043887;28;20131;-79
2023/12/18 04:49:23;;;;;;;7.28;3.08;;;8.50;99.90;;;;;;5047732;28;20032;-80
2023/12/18 04:51:49;;;;;;;5.93;2.80;;;8.50;99.90;;;;;;5061111;28;20033;-78
2023/12/18 04:54:15;;;;;;;7.55;3.35;;;8.50;99.90;;;;;;5064968;28;20076;-78
2023/12/18 04:56:41;;;;;;;9.05;2.75;;;8.50;99.90;;;;;;5050649;28;20410;-78
2023/12/18 04:59:06;;;;;;;6.63;2.80;;;8.60;99.90;;;;;;5057015;28;20078;-77
2023/12/18 05:01:32;;;;;;;6.20;2.40;;;8.50;99.90;;;;;;5056190;28;20037;-78
2023/12/18 05:03:58;;;;;;;7.32;3.90;;;8.50;99.90;;;;;;5065766;28;20044;-80
2023/12/18 05:06:36;;;;;;;14.85;3.88;;;8.50;99.90;;;;;;5067691;28;20031;-78
2023/12/18 05:09:02;;;;;;;10.32;4.18;;;8.50;99.90;;;;;;5058621;28;20042;-78
2023/12/18 05:11:28;;;;;;;12.18;3.40;;;8.50;99.90;;;;;;5044360;28;20040;-78
2023/12/18 05:13:54;;;;;;;11.90;4.18;;;8.40;99.90;;;;;;5060709;28;20088;-77
2023/12/18 05:16:19;;;;;;;7.28;3.67;;;8.40;99.90;;;;;;5063710;28;20036;-80
2023/12/18 05:18:45;;;;;;;10.25;4.07;;;8.40;99.90;;;;;;5055270;28;20488;-79
2023/12/18 05:21:12;;;;;;;12.48;4.95;;;8.40;99.90;;;;;;5056374;28;20032;-78
2023/12/18 05:23:38;;;;;;;7.82;4.38;;;8.30;99.90;;;;;;5050363;28;20044;-78
2023/12/18 05:26:16;;;;;;;17.00;5.95;;;8.30;99.90;;;;;;5059739;28;20423;-79
2023/12/18 05:28:42;;;;;;;10.52;4.53;;;8.30;99.90;;;;;;5064019;28;20089;-80
2023/12/18 05:31:11;;;;;;;14.13;4.75;;;8.30;99.90;;;;;;5039810;28;20436;-79
2023/12/18 05:33:37;;;;;;;20.05;5.00;;;8.30;99.90;;;;;;5051365;28;20089;-80
2023/12/18 05:36:03;;;;;;;11.23;4.28;;;8.30;99.90;;;;;;5061477;28;20035;-80
2023/12/18 05:38:29;;;;;;;21.15;4.15;;;8.30;99.90;;;;;;5040316;28;20040;-80
2023/12/18 05:40:55;;;;;;;10.88;4.40;;;8.30;99.90;;;;;;5061998;28;20051;-78
2023/12/18 05:43:20;;;;;;;9.57;2.97;;;8.30;99.90;;;;;;5059928;28;20035;-79
2023/12/18 05:45:46;;;;;;;10.05;3.88;;;8.30;99.90;;;;;;5045702;28;20039;-77
2023/12/18 05:48:12;;;;;;;9.23;4.45;;;8.30;99.90;;;;;;5042814;28;20431;-78
2023/12/18 05:50:38;;;;;;;9.70;3.50;;;8.30;99.90;;;;;;5062141;28;20035;-79
2023/12/18 05:53:04;;;;;;;7.78;3.00;;;8.40;99.90;;;;;;5061849;28;20066;-80
2023/12/18 05:55:30;;;;;;;4.88;3.15;;;8.40;99.90;;;;;;5056177;28;20048;-80
2023/12/18 05:57:55;;;;;;;9.73;3.47;;;8.40;99.90;;;;;;5067440;28;20036;-80
2023/12/18 06:00:21;;;;;;;4.53;2.75;;;8.40;99.90;;;;;;5035569;28;20063;-79
2023/12/18 06:02:47;;;;;;;12.55;3.47;;;8.40;99.90;;;;;;5079399;28;20483;-78
2023/12/18 06:05:13;;;;;;;13.93;3.67;;;8.40;99.90;;;;;;5056341;28;20119;-80
2023/12/18 06:07:40;;;;;;;8.48;3.38;;;8.40;99.90;;;;;;5038669;28;20045;-78
2023/12/18 06:10:11;;;;;;;10.73;4.03;;;8.40;99.90;;;;;;5048180;28;20032;-81
2023/12/18 06:12:37;;;;;;;7.28;3.80;;;8.40;99.90;;;;;;5046696;28;20036;-79
2023/12/18 06:15:05;;;;;;;13.32;3.70;;;8.40;99.90;;;;;;5043768;28;20052;-79
2023/12/18 06:17:31;;;;;;;6.78;3.75;;;8.40;99.90;;;;;;5056171;28;20134;-76
2023/12/18 06:19:56;;;;;;;11.65;3.22;;;8.50;99.90;;;;;;5060593;28;20100;-78
2023/12/18 06:22:22;;;;;;;12.10;3.83;;;8.50;99.90;;;;;;5050458;28;20039;-77
2023/12/18 06:24:48;;;;;;;5.82;2.63;;;8.50;99.90;;;;;;5060792;28;20051;-78
2023/12/18 06:27:14;;;;;;;7.35;3.78;;;8.50;99.90;;;;;;5065928;28;20507;-78
2023/12/18 06:29:41;;;;;;;10.40;4.10;;;8.50;99.90;;;;;;5058209;28;20047;-80
2023/12/18 06:32:07;;;;;;;9.32;4.25;;;8.50;99.90;;;;;;5058188;28;20472;-79
2023/12/18 06:34:33;;;;;;;7.93;3.90;;;8.50;99.90;;;;;;5039960;28;20094;-79
2023/12/18 06:36:58;;;;;;;9.50;3.75;;;8.50;99.90;;;;;;5039456;28;20044;-81
2023/12/18 06:39:24;;;;;;;7.10;3.25;;;8.50;99.90;;;;;;5058138;28;20046;-81
2023/12/18 06:41:50;;;;;;;10.57;4.30;;;8.50;99.90;;;;;;5062550;28;20044;-81
2023/12/18 06:44:16;;;;;;;8.90;3.35;;;8.50;99.90;;;;;;5048984;28;20070;-81
2023/12/18 06:46:41;;;;;;;7.07;3.10;;;8.60;99.90;;;;;;5060294;28;20419;-82
2023/12/18 06:49:07;;;;;;;6.72;2.97;;;8.50;99.90;;;;;;5047337;28;20033;-80
2023/12/18 06:51:49;;;;;;;18.63;3.83;;;8.50;99.90;;;;;;5065868;28;20036;-81
2023/12/18 06:54:16;;;;;;;5.75;2.95;;;8.60;99.90;;;;;;5062756;28;20041;-81
2023/12/18 06:56:41;;;;;;;7.50;2.95;;;8.50;99.90;;;;;;5059542;28;20055;-78
2023/12/18 06:59:07;;;;;;;4.65;3.83;;;8.50;99.90;;;;;;5058032;28;20118;-76
2023/12/18 07:01:33;;;;;;;6.57;3.53;;;8.60;99.90;;;;;;5052593;28;20040;-78
2023/12/18 07:03:59;;;;;;;11.02;4.53;;;8.60;99.90;;;;;;5042687;28;20492;-75
2023/12/18 07:06:25;;;;;;;7.28;3.58;;;8.60;99.90;;;;;;5061926;28;20043;-79
2023/12/18 07:08:51;;;;;;;9.48;4.57;;;8.60;99.90;;;;;;5057690;28;20032;-79
2023/12/18 07:11:17;;;;;;;14.75;4.45;;;8.60;99.90;;;;;;5054935;28;20054;-80
2023/12/18 07:13:42;;;;;;;9.93;4.03;;;8.60;99.90;;;;;;5059610;28;20032;-80
2023/12/18 07:16:08;;;;;;;13.95;4.82;;;8.60;99.90;;;;;;5039974;28;20373;-79
2023/12/18 07:18:34;;;;;;;5.28;3.35;;;8.60;99.90;;;;;;5043166;28;20137;-80
2023/12/18 07:21:00;;;;;;;14.80;5.03;;;8.50;99.90;;;;;;5062290;28;20489;-81
2023/12/18 07:23:25;;;;;;;10.85;4.05;;;8.60;99.90;;;;;;5065677;28;20042;-80
2023/12/18 07:25:51;;;;;;;10.63;3.63;;;8.60;99.90;;;;;;5060867;28;20075;-80
2023/12/18 07:28:17;;;;;;;10.60;3.10;;;8.60;99.90;;;;;;5063493;28;20071;-80
2023/12/18 07:30:43;;;;;;;11.90;5.03;;;8.60;99.90;;;;;;5041241;28;20048;-78
2023/12/18 07:33:09;;;;;;;7.10;2.97;;;8.50;99.90;;;;;;5064307;28;20036;-80
2023/12/18 07:35:34;;;;;;;15.25;4.60;;;8.60;99.90;;;;;;5046370;28;20067;-80
2023/12/18 07:38:00;;;;;;;8.60;3.53;;;8.60;99.90;;;;;;5057624;28;20075;-81
2023/12/18 07:40:26;;;;;;;12.82;3.90;;;8.60;99.90;;;;;;5057561;28;20098;-80
2023/12/18 07:42:51;;;;;;;9.80;3.97;;;8.60;99.90;;;;;;5061802;28;20128;-78
2023/12/18 07:45:18;;;;;;;6.18;3.47;;;8.60;99.90;;;;;;5045359;28;20039;-76
2023/12/18 07:47:44;;;;;;;9.70;3.88;;;8.60;99.90;;;;;;5056065;28;20045;-79
2023/12/18 07:50:10;;;;;;;6.13;3.45;;;8.60;99.90;;;;;;5061063;28;20040;-80
2023/12/18 07:52:39;;;;;;;7.82;4.05;;;8.70;99.90;;;;;;5047916;28;20036;-80
2023/12/18 07:55:05;;;;;;;10.65;2.97;;;8.70;99.90;;;;;;5062734;28;20360;-78
2023/12/18 07:57:31;;;;;;;10.80;3.80;;;8.70;99.90;;;;;;5040898;28;20048;-80
2023/12/18 07:59:57;;;;;;;5.88;2.83;;;8.70;99.90;;;;;;5052702;28;20036;-80
2023/12/18 08:02:23;;;;;;;11.98;4.32;;;8.70;99.90;;;;;;5062816;28;20047;-79
2023/12/18 08:04:49;;;;;;;8.25;3.08;;;8.70;99.90;;;;;;5056132;28;20044;-80
2023/12/18 08:07:15;;;;;;;8.27;3.67;;;8.80;99.90;;;;;;5058930;28;20127;-80
2023/12/18 08:09:41;;;;;;;7.75;3.30;;;8.80;99.90;;;;;;5059117;28;20040;-80
2023/12/18 08:12:07;;;;;;;7.07;3.30;;;8.80;99.90;;;;;;5055278;28;20111;-78
2023/12/18 08:14:33;;;;;;;9.48;3.72;;;8.80;99.90;;;;;;5069603;28;20123;-80
2023/12/18 08:16:59;;;;;;;7.53;3.92;;;8.80;99.90;;;;;;5066174;28;20488;-77
2023/12/18 08:19:24;;;;;;;7.68;3.58;;;8.80;99.90;;;;;;5040541;28;20458;-78
2023/12/18 08:21:50;;;;;;;5.72;3.45;;;8.80;99.90;;;;;;5065724;28;20044;-78
2023/12/18 08:24:16;;;;;;;7.68;3.95;;;8.80;99.90;;;;;;5044930;28;20048;-78
2023/12/18 08:26:45;;;;;;;7.03;3.63;;;8.80;99.90;;;;;;5049560;28;20469;-79
2023/12/18 08:29:11;;;;;;;9.93;3.25;;;8.80;99.90;;;;;;5067433;28;20048;-80
2023/12/18 08:31:37;;;;;;;7.53;3.97;;;8.80;99.90;;;;;;5061528;28;20044;-80
2023/12/18 08:34:03;;;;;;;12.65;3.50;;;8.80;99.90;;;;;;5040845;28;20036;-80
2023/12/18 08:36:30;;;;;;;14.27;4.38;;;8.80;99.90;;;;;;5058329;28;20074;-78
2023/12/18 08:38:55;;;;;;;9.00;3.85;;;8.80;99.90;;;;;;5060473;28;20545;-79
2023/12/18 08:41:21;;;;;;;10.60;4.13;;;8.80;99.90;;;;;;5074947;28;20040;-80
2023/12/18 08:43:47;;;;;;;28.00;5.50;;;8.80;99.90;;;;;;5063506;28;20040;-81
2023/12/18 08:46:13;;;;;;;9.30;4.22;;;8.70;99.90;;;;;;5048753;28;20040;-77
2023/12/18 08:48:38;;;;;;;6.82;3.30;;;8.70;99.90;;;;;;5063259;28;20502;-80
2023/12/18 08:51:05;;;;;;;6.68;3.78;;;8.70;99.90;;;;;;5044148;28;20036;-80
2023/12/18 08:53:30;;;;;;;10.05;4.13;;;8.70;99.90;;;;;;5047394;28;20078;-78
2023/12/18 08:55:56;;;;;;;10.93;4.53;;;8.70;99.90;;;;;;5053224;28;20056;-80
2023/12/18 08:58:25;;;;;;;11.68;4.90;;;8.60;99.90;;;;;;5063236;28;20044;-80
2023/12/18 09:00:52;;;;;;;11.50;4.72;;;8.60;99.90;;;;;;5064697;28;20052;-80
2023/12/18 09:03:20;;;;;;;10.05;4.65;;;8.70;99.90;;;;;;5060614;28;20116;-78
2023/12/18 09:05:46;;;;;;;9.32;4.32;;;8.60;99.90;;;;;;5061588;28;20491;-79
2023/12/18 09:08:13;;;;;;;8.60;4.93;;;8.60;99.90;;;;;;5063536;28;20036;-77
2023/12/18 09:10:40;;;;;;;8.45;4.65;;;8.60;99.90;;;;;;5057102;28;20040;-79
2023/12/18 09:13:05;;;;;;;12.25;4.88;;;8.60;99.90;;;;;;5052887;28;20036;-78
2023/12/18 09:15:31;;;;;;;19.48;6.32;;;8.60;99.90;;;;;;5063615;28;20043;-79
2023/12/18 09:17:57;;;;;;;11.82;4.22;;;8.60;99.90;;;;;;5034933;28;20037;-77
2023/12/18 09:20:23;;;;;;;12.32;5.15;;;8.60;99.90;;;;;;5051573;28;20036;-77
2023/12/18 09:22:50;;;;;;;13.32;4.20;;;8.60;99.90;;;;;;5053728;28;20464;-78
2023/12/18 09:25:16;;;;;;;13.75;6.18;;;8.60;99.90;;;;;;5039116;28;20068;-79
2023/12/18 09:27:41;;;;;;;11.23;5.07;;;8.60;99.90;;;;;;5068183;28;20534;-79
2023/12/18 09:30:08;;;;;;;10.18;4.20;;;8.60;99.90;;;;;;5063823;28;20044;-78
2023/12/18 09:32:34;;;;;;;18.77;5.65;;;8.60;99.90;;;;;;5043082;28;20028;-79
2023/12/18 09:34:59;;;;;;;12.13;4.97;;;8.60;99.90;;;;;;5047019;28;20514;-78
2023/12/18 09:37:25;;;;;;;11.80;5.20;;;8.60;99.90;;;;;;5063142;28;20404;-79
2023/12/18 09:39:51;;;;;;;16.52;5.78;;;8.70;99.90;;;;;;5062864;28;20040;-80
2023/12/18 09:42:17;;;;;;;8.48;4.18;;;8.60;99.90;;;;;;5047292;28;20122;-79
2023/12/18 09:44:46;;;;;;;15.20;5.65;;;8.60;99.90;;;;;;5063823;28;20040;-79
2023/12/18 09:47:13;;;;;;;8.85;5.07;;;8.70;99.90;;;;;;5064244;28;20044;-78
2023/12/18 09:49:39;;;;;;;11.95;5.45;;;8.70;99.90;;;;;;5060163;28;20036;-80
2023/12/18 09:52:08;;;;;;;12.00;4.65;;;8.70;99.90;;;;;;5052090;28;20033;-76
2023/12/18 09:54:34;;;;;;;11.25;4.85;;;8.70;99.90;;;;;;5058799;28;20598;-77
2023/12/18 09:57:07;;;;;;;20.40;5.43;;;8.70;99.90;;;;;;5054940;28;20045;-78
2023/12/18 09:59:33;;;;;;;12.88;5.25;;;8.70;99.90;;;;;;5080350;28;20044;-78
2023/12/18 10:01:59;;;;;;;15.10;5.55;;;8.70;99.90;;;;;;5059464;28;20071;-78
2023/12/18 10:04:25;;;;;;;11.13;5.70;;;8.70;99.90;;;;;;5067756;28;20076;-80
2023/12/18 10:06:51;;;;;;;14.70;5.80;;;8.70;99.90;;;;;;5050145;28;20101;-80
2023/12/18 10:09:18;;;;;;;12.48;5.40;;;8.70;99.90;;;;;;5046637;28;20032;-79
2023/12/18 10:11:48;;;;;;;10.75;5.78;;;8.80;99.90;;;;;;5063486;28;20032;-80
2023/12/18 10:14:15;;;;;;;13.05;5.47;;;8.80;99.90;;;;;;5043152;28;20068;-79
2023/12/18 10:16:42;;;;;;;15.93;4.85;;;8.80;99.90;;;;;;5051546;28;20115;-78
2023/12/18 10:19:09;;;;;;;16.95;6.72;;;8.80;99.90;;;;;;5041907;28;20094;-77
2023/12/18 10:21:38;;;;;;;21.30;7.53;;;8.80;99.90;;;;;;5049705;28;20048;-79
2023/12/18 10:24:05;;;;;;;11.17;6.00;;;8.80;99.90;;;;;;5063072;28;20044;-80
2023/12/18 10:26:31;;;;;;;16.27;7.10;;;8.80;99.90;;;;;;5063242;28;20093;-81
2023/12/18 10:28:57;;;;;;;17.85;6.40;;;8.80;99.90;;;;;;5059220;28;20032;-80
2023/12/18 10:31:24;;;;;;;11.32;5.82;;;8.80;99.90;;;;;;5057501;28;20060;-79
2023/12/18 10:33:51;;;;;;;12.32;5.45;;;8.90;99.90;;;;;;5064518;28;20028;-78
2023/12/18 10:36:17;;;;;;;14.18;6.45;;;8.90;99.90;;;;;;5051187;28;20039;-81
2023/12/18 10:38:48;;;;;;;12.60;6.00;;;8.90;99.90;;;;;;5052187;28;20119;-79
2023/12/18 10:41:23;;;;;;;22.83;6.10;;;8.90;99.90;;;;;;5055533;28;20084;-78
2023/12/18 10:43:50;;;;;;;12.35;5.40;;;8.90;99.90;;;;;;5055899;28;20076;-79
2023/12/18 10:46:16;;;;;;;12.45;6.03;;;8.90;99.90;;;;;;5055321;28;20342;-79
2023/12/18 10:48:42;;;;;;;12.50;5.22;;;9.00;99.90;;;;;;5063231;28;20033;-80
2023/12/18 10:51:10;;;;;;;11.02;6.30;;;9.00;99.90;;;;;;5037524;28;20040;-80
2023/12/18 10:53:37;;;;;;;10.15;5.05;;;9.00;99.90;;;;;;5062712;28;20043;-78
2023/12/18 10:56:06;;;;;;;8.30;5.05;;;9.00;99.90;;;;;;5064350;28;20434;-77
2023/12/18 10:58:34;;;;;;;8.13;5.05;;;9.10;99.90;;;;;;5040089;28;20044;-80
2023/12/18 11:01:03;;;;;;;7.95;4.35;;;9.10;99.90;;;;;;5044292;28;20484;-78
2023/12/18 11:03:29;;;;;;;9.52;4.43;;;9.10;99.90;;;;;;5058383;28;20052;-75
2023/12/18 11:05:56;;;;;;;14.73;5.93;;;9.20;99.90;;;;;;5057586;28;20047;-80
2023/12/18 11:08:23;;;;;;;11.30;5.22;;;9.20;99.90;;;;;;5046242;28;20111;-81
2023/12/18 11:10:49;;;;;;;15.07;6.30;;;9.30;99.90;;;;;;5061828;28;20073;-78
2023/12/18 11:13:28;;;;;;;12.13;6.40;;;9.30;99.90;;;;;;5058186;28;20040;-78
2023/12/18 11:15:59;;;;;;;19.95;6.95;;;9.30;99.90;;;;;;5052110;28;20048;-79
2023/12/18 11:18:54;;;;;;;18.08;6.60;;;9.40;99.90;;;;;;5044449;28;20040;-79
2023/12/18 11:21:22;;;;;;;14.25;6.38;;;9.40;99.90;;;;;;5054760;28;20496;-79
2023/12/18 11:23:50;;;;;;;15.48;6.97;;;9.40;99.90;;;;;;5045417;28;20045;-79
2023/12/18 11:26:16;;;;;;;18.70;6.32;;;9.40;99.90;;;;;;5054289;28;20051;-78
2023/12/18 11:28:43;;;;;;;9.75;5.93;;;9.40;99.90;;;;;;5049618;28;20036;-79
2023/12/18 11:31:13;;;;;;;9.88;5.32;;;9.50;99.90;;;;;;5057706;28;20590;-80
2023/12/18 11:33:58;;;;;;;;;;;9.40;99.90;;;;;;5061369;28;20044;-79
2023/12/18 11:36:25;;;;;;;10.88;5.57;;;9.40;99.90;;;;;;5051148;28;20030;-80
2023/12/18 11:38:50;;;;;;;12.48;6.18;;;9.40;99.90;;;;;;5045216;28;20437;-80
2023/12/18 11:41:44;;;;;;;11.30;5.85;;;9.40;99.90;;;;;;5042072;28;20191;-79
2023/12/18 11:44:14;;;;;;;14.68;6.65;;;9.40;99.90;;;;;;5025783;28;20109;-80
2023/12/18 11:46:42;;;;;;;12.05;5.65;;;9.40;99.90;;;;;;5021762;28;22347;-77
2023/12/18 11:49:08;;;;;;;12.15;6.13;;;9.40;99.90;;;;;;5043644;28;20037;-78
2023/12/18 11:51:35;;;;;;;9.77;5.55;;;9.40;99.90;;;;;;5019400;28;20713;-79
2023/12/18 11:54:01;;;;;;;12.40;5.82;;;9.40;99.90;;;;;;5044731;28;20039;-79
2023/12/18 11:56:28;;;;;;;13.82;5.60;;;9.40;99.90;;;;;;5037520;28;20038;-77
2023/12/18 11:58:55;;;;;;;13.18;7.35;;;9.40;99.90;;;;;;5030794;28;20497;-75
2023/12/18 12:01:21;;;;;;;12.20;6.07;;;9.40;99.90;;;;;;5042981;28;20108;-79
2023/12/18 12:03:47;;;;;;;14.77;6.25;;;9.40;99.90;;;;;;5033266;28;20590;-78
2023/12/18 12:06:17;;;;;;;14.93;6.63;;;9.40;99.90;;;;;;5034434;28;20045;-78
2023/12/18 12:08:47;;;;;;;11.57;5.75;;;9.40;99.90;;;;;;5023223;28;20068;-79
2023/12/18 12:11:13;;;;;;;11.27;5.97;;;9.30;99.90;;;;;;5041967;28;20179;-77
2023/12/18 12:13:38;;;;;;;13.00;6.15;;;9.40;99.90;;;;;;5043360;28;20120;-79
2023/12/18 12:16:04;;;;;;;12.63;6.05;;;9.40;99.90;;;;;;5030303;28;20076;-78
2023/12/18 12:18:33;;;;;;;13.77;6.22;;;9.40;99.90;;;;;;5009134;28;20042;-78
2023/12/18 12:20:59;;;;;;;13.93;6.82;;;9.40;99.90;;;;;;5024307;28;20037;-78
2023/12/18 12:23:26;;;;;;;13.63;6.45;;;9.40;99.90;;;;;;5024770;28;20191;-78
2023/12/18 12:25:57;;;;;;;13.88;6.18;;;9.40;99.90;;;;;;5026573;28;20042;-79
2023/12/18 12:28:23;;;;;;;17.23;6.45;;;9.30;99.90;;;;;;5022392;28;20044;-79
2023/12/18 12:30:49;;;;;;;15.90;6.45;;;9.40;99.90;;;;;;5024922;28;20030;-79
2023/12/18 12:33:16;;;;;;;17.30;5.57;;;9.30;99.90;;;;;;5025102;28;20041;-79
2023/12/18 12:35:43;;;;;;;11.27;6.05;;;9.30;99.90;;;;;;5025086;28;20049;-79
2023/12/18 12:38:08;;;;;;;12.85;6.00;;;9.30;99.90;;;;;;5025585;28;20107;-80
2023/12/18 12:40:45;;;;;;;14.43;5.85;;;9.30;99.90;;;;;;5025676;28;20061;-78
2023/12/18 12:43:15;;;;;;;12.25;6.22;;;9.30;99.90;;;;;;5025092;28;20045;-78
2023/12/18 12:45:42;;;;;;;11.48;5.75;;;9.30;99.90;;;;;;5009158;28;20046;-79
2023/12/18 12:48:10;;;;;;;10.90;5.75;;;9.30;99.90;;;;;;5007054;28;20564;-79
2023/12/18 12:50:40;;;;;;;10.95;5.53;;;9.30;99.90;;;;;;5005594;28;20037;-80